sensor_id;sensor_type;location;lat;lon;timestamp;P1;durP1;ratioP1;P2;durP2;ratioP2
36797;SDS011;22748;8.426;99.512;2023-06-26T00:01:30;10.07;;;6.10;;
36797;SDS011;22748;8.426;99.512;2023-06-26T00:04:15;17.35;;;6.57;;
36797;SDS011;22748;8.426;99.512;2023-06-26T00:06:52;100.50;;;11.77;;
36797;SDS011;22748;8.426;99.512;2023-06-26T00:09:35;53.22;;;9.15;;
36797;SDS011;22748;8.426;99.512;2023-06-26T00:12:17;15.18;;;5.88;;
36797;SDS011;22748;8.426;99.512;2023-06-26T00:14:48;27.63;;;7.35;;
36797;SDS011;22748;8.426;99.512;2023-06-26T00:17:21;14.10;;;5.63;;
36797;SDS011;22748;8.426;99.512;2023-06-26T00:19:51;8.65;;;4.70;;
36797;SDS011;22748;8.426;99.512;2023-06-26T00:22:22;8.98;;;5.60;;
36797;SDS011;22748;8.426;99.512;2023-06-26T00:24:55;18.95;;;5.80;;
36797;SDS011;22748;8.426;99.512;2023-06-26T00:27:32;12.52;;;5.30;;
36797;SDS011;22748;8.426;99.512;2023-06-26T00:30:03;21.42;;;14.88;;
36797;SDS011;22748;8.426;99.512;2023-06-26T00:32:37;14.00;;;5.25;;
36797;SDS011;22748;8.426;99.512;2023-06-26T00:35:14;12.32;;;5.30;;
36797;SDS011;22748;8.426;99.512;2023-06-26T00:40:15;9.80;;;5.47;;
36797;SDS011;22748;8.426;99.512;2023-06-26T00:42:45;6.57;;;4.10;;
36797;SDS011;22748;8.426;99.512;2023-06-26T00:45:23;98.35;;;10.68;;
36797;SDS011;22748;8.426;99.512;2023-06-26T00:48:00;52.55;;;6.80;;
36797;SDS011;22748;8.426;99.512;2023-06-26T00:50:33;16.27;;;4.50;;
36797;SDS011;22748;8.426;99.512;2023-06-26T00:53:04;24.15;;;13.38;;
36797;SDS011;22748;8.426;99.512;2023-06-26T00:55:37;11.75;;;6.80;;
36797;SDS011;22748;8.426;99.512;2023-06-26T00:58:08;7.10;;;4.13;;
36797;SDS011;22748;8.426;99.512;2023-06-26T01:06:24;5.95;;;3.85;;
36797;SDS011;22748;8.426;99.512;2023-06-26T01:09:05;4.90;;;3.50;;
36797;SDS011;22748;8.426;99.512;2023-06-26T01:11:40;3.75;;;3.08;;
36797;SDS011;22748;8.426;99.512;2023-06-26T01:16:41;4.63;;;3.17;;
36797;SDS011;22748;8.426;99.512;2023-06-26T01:19:32;5.13;;;3.17;;
36797;SDS011;22748;8.426;99.512;2023-06-26T01:22:07;6.10;;;3.10;;
36797;SDS011;22748;8.426;99.512;2023-06-26T01:24:56;16.27;;;9.73;;
36797;SDS011;22748;8.426;99.512;2023-06-26T01:27:39;25.40;;;17.55;;
36797;SDS011;22748;8.426;99.512;2023-06-26T01:30:11;59.63;;;33.50;;
36797;SDS011;22748;8.426;99.512;2023-06-26T01:32:43;25.52;;;16.75;;
36797;SDS011;22748;8.426;99.512;2023-06-26T01:37:45;19.43;;;12.93;;
36797;SDS011;22748;8.426;99.512;2023-06-26T01:40:22;16.95;;;11.68;;
36797;SDS011;22748;8.426;99.512;2023-06-26T01:42:56;12.20;;;8.90;;
36797;SDS011;22748;8.426;99.512;2023-06-26T01:45:27;13.85;;;8.77;;
36797;SDS011;22748;8.426;99.512;2023-06-26T01:48:05;16.08;;;10.43;;
36797;SDS011;22748;8.426;99.512;2023-06-26T01:50:44;16.08;;;11.80;;
36797;SDS011;22748;8.426;99.512;2023-06-26T01:53:18;18.98;;;13.90;;
36797;SDS011;22748;8.426;99.512;2023-06-26T01:55:55;17.85;;;12.80;;
36797;SDS011;22748;8.426;99.512;2023-06-26T02:01:21;25.35;;;12.25;;
36797;SDS011;22748;8.426;99.512;2023-06-26T02:03:52;18.85;;;11.32;;
36797;SDS011;22748;8.426;99.512;2023-06-26T02:06:22;16.25;;;11.18;;
36797;SDS011;22748;8.426;99.512;2023-06-26T02:09:01;16.23;;;10.85;;
36797;SDS011;22748;8.426;99.512;2023-06-26T02:11:33;12.32;;;8.65;;
36797;SDS011;22748;8.426;99.512;2023-06-26T02:14:06;13.38;;;8.75;;
36797;SDS011;22748;8.426;99.512;2023-06-26T02:16:47;12.23;;;8.07;;
36797;SDS011;22748;8.426;99.512;2023-06-26T02:19:20;10.68;;;4.65;;
36797;SDS011;22748;8.426;99.512;2023-06-26T02:22:03;8.10;;;5.10;;
36797;SDS011;22748;8.426;99.512;2023-06-26T02:24:44;10.93;;;4.75;;
36797;SDS011;22748;8.426;99.512;2023-06-26T02:27:14;6.78;;;3.83;;
36797;SDS011;22748;8.426;99.512;2023-06-26T02:29:48;8.68;;;3.22;;
36797;SDS011;22748;8.426;99.512;2023-06-26T02:32:20;12.35;;;5.78;;
36797;SDS011;22748;8.426;99.512;2023-06-26T02:34:52;9.00;;;3.90;;
36797;SDS011;22748;8.426;99.512;2023-06-26T02:37:31;10.50;;;4.20;;
36797;SDS011;22748;8.426;99.512;2023-06-26T02:40:02;24.58;;;5.15;;
36797;SDS011;22748;8.426;99.512;2023-06-26T02:42:34;7.22;;;2.67;;
36797;SDS011;22748;8.426;99.512;2023-06-26T02:45:10;10.15;;;3.60;;
36797;SDS011;22748;8.426;99.512;2023-06-26T02:47:45;6.65;;;4.15;;
36797;SDS011;22748;8.426;99.512;2023-06-26T02:50:26;19.73;;;8.73;;
36797;SDS011;22748;8.426;99.512;2023-06-26T02:52:57;9.52;;;3.40;;
36797;SDS011;22748;8.426;99.512;2023-06-26T02:55:28;9.07;;;2.70;;
36797;SDS011;22748;8.426;99.512;2023-06-26T02:57:58;8.07;;;3.10;;
36797;SDS011;22748;8.426;99.512;2023-06-26T03:00:41;9.55;;;2.90;;
36797;SDS011;22748;8.426;99.512;2023-06-26T03:03:23;7.55;;;2.90;;
36797;SDS011;22748;8.426;99.512;2023-06-26T03:06:06;14.85;;;5.75;;
36797;SDS011;22748;8.426;99.512;2023-06-26T03:08:42;7.65;;;3.72;;
36797;SDS011;22748;8.426;99.512;2023-06-26T03:11:18;9.27;;;3.08;;
36797;SDS011;22748;8.426;99.512;2023-06-26T03:14:03;8.02;;;3.28;;
36797;SDS011;22748;8.426;99.512;2023-06-26T03:16:50;5.45;;;2.92;;
36797;SDS011;22748;8.426;99.512;2023-06-26T03:19:25;9.05;;;3.90;;
36797;SDS011;22748;8.426;99.512;2023-06-26T03:24:26;10.85;;;3.53;;
36797;SDS011;22748;8.426;99.512;2023-06-26T03:26:57;8.70;;;3.42;;
36797;SDS011;22748;8.426;99.512;2023-06-26T03:32:10;8.55;;;3.38;;
36797;SDS011;22748;8.426;99.512;2023-06-26T03:34:42;7.55;;;4.75;;
36797;SDS011;22748;8.426;99.512;2023-06-26T03:37:15;8.13;;;3.65;;
36797;SDS011;22748;8.426;99.512;2023-06-26T03:39:55;6.82;;;3.90;;
36797;SDS011;22748;8.426;99.512;2023-06-26T03:42:38;5.53;;;3.42;;
36797;SDS011;22748;8.426;99.512;2023-06-26T03:45:24;4.82;;;3.90;;
36797;SDS011;22748;8.426;99.512;2023-06-26T03:48:12;9.68;;;4.47;;
36797;SDS011;22748;8.426;99.512;2023-06-26T03:50:42;9.40;;;3.65;;
36797;SDS011;22748;8.426;99.512;2023-06-26T03:53:16;12.55;;;4.13;;
36797;SDS011;22748;8.426;99.512;2023-06-26T03:55:52;13.88;;;4.65;;
36797;SDS011;22748;8.426;99.512;2023-06-26T04:00:51;7.97;;;4.00;;
36797;SDS011;22748;8.426;99.512;2023-06-26T04:03:42;10.95;;;6.25;;
36797;SDS011;22748;8.426;99.512;2023-06-26T04:06:15;7.38;;;4.60;;
36797;SDS011;22748;8.426;99.512;2023-06-26T04:08:46;16.65;;;6.43;;
36797;SDS011;22748;8.426;99.512;2023-06-26T04:11:17;11.88;;;4.82;;
36797;SDS011;22748;8.426;99.512;2023-06-26T04:13:48;7.32;;;4.20;;
36797;SDS011;22748;8.426;99.512;2023-06-26T04:16:27;7.75;;;3.60;;
36797;SDS011;22748;8.426;99.512;2023-06-26T04:21:49;8.20;;;3.40;;
36797;SDS011;22748;8.426;99.512;2023-06-26T04:24:35;11.18;;;3.97;;
36797;SDS011;22748;8.426;99.512;2023-06-26T04:27:15;8.25;;;3.30;;
36797;SDS011;22748;8.426;99.512;2023-06-26T04:29:45;7.05;;;3.47;;
36797;SDS011;22748;8.426;99.512;2023-06-26T04:32:20;9.73;;;4.20;;
36797;SDS011;22748;8.426;99.512;2023-06-26T04:34:59;8.13;;;6.25;;
36797;SDS011;22748;8.426;99.512;2023-06-26T04:37:38;6.90;;;4.18;;
36797;SDS011;22748;8.426;99.512;2023-06-26T04:42:39;8.07;;;4.35;;
36797;SDS011;22748;8.426;99.512;2023-06-26T04:47:39;8.52;;;4.38;;
36797;SDS011;22748;8.426;99.512;2023-06-26T04:50:14;34.47;;;25.80;;
36797;SDS011;22748;8.426;99.512;2023-06-26T04:52:46;86.50;;;63.05;;
36797;SDS011;22748;8.426;99.512;2023-06-26T04:55:18;40.08;;;27.15;;
36797;SDS011;22748;8.426;99.512;2023-06-26T04:57:49;34.13;;;20.45;;
36797;SDS011;22748;8.426;99.512;2023-06-26T05:00:28;15.23;;;8.20;;
36797;SDS011;22748;8.426;99.512;2023-06-26T05:03:01;7.65;;;4.15;;
36797;SDS011;22748;8.426;99.512;2023-06-26T05:05:34;6.18;;;3.90;;
36797;SDS011;22748;8.426;99.512;2023-06-26T05:08:14;8.25;;;4.03;;
36797;SDS011;22748;8.426;99.512;2023-06-26T05:13:25;12.30;;;5.40;;
36797;SDS011;22748;8.426;99.512;2023-06-26T05:15:55;11.05;;;6.70;;
36797;SDS011;22748;8.426;99.512;2023-06-26T05:18:27;7.82;;;3.53;;
36797;SDS011;22748;8.426;99.512;2023-06-26T05:20:59;7.40;;;4.60;;
36797;SDS011;22748;8.426;99.512;2023-06-26T05:23:30;7.82;;;4.15;;
36797;SDS011;22748;8.426;99.512;2023-06-26T05:26:01;6.85;;;3.50;;
36797;SDS011;22748;8.426;99.512;2023-06-26T05:28:40;8.07;;;4.03;;
36797;SDS011;22748;8.426;99.512;2023-06-26T05:31:16;7.97;;;4.18;;
36797;SDS011;22748;8.426;99.512;2023-06-26T05:33:47;10.70;;;7.55;;
36797;SDS011;22748;8.426;99.512;2023-06-26T05:36:32;12.98;;;7.35;;
36797;SDS011;22748;8.426;99.512;2023-06-26T05:39:06;11.82;;;4.50;;
36797;SDS011;22748;8.426;99.512;2023-06-26T05:41:41;8.55;;;4.57;;
36797;SDS011;22748;8.426;99.512;2023-06-26T05:44:23;11.30;;;4.75;;
36797;SDS011;22748;8.426;99.512;2023-06-26T05:47:03;5.60;;;4.20;;
36797;SDS011;22748;8.426;99.512;2023-06-26T05:49:45;6.68;;;3.75;;
36797;SDS011;22748;8.426;99.512;2023-06-26T05:52:44;6.28;;;3.97;;
36797;SDS011;22748;8.426;99.512;2023-06-26T05:55:16;6.13;;;3.50;;
36797;SDS011;22748;8.426;99.512;2023-06-26T05:57:48;7.00;;;3.97;;
36797;SDS011;22748;8.426;99.512;2023-06-26T06:00:27;11.73;;;7.70;;
36797;SDS011;22748;8.426;99.512;2023-06-26T06:03:03;6.45;;;4.50;;
36797;SDS011;22748;8.426;99.512;2023-06-26T06:08:06;8.18;;;3.85;;
36797;SDS011;22748;8.426;99.512;2023-06-26T06:10:44;8.52;;;4.05;;
36797;SDS011;22748;8.426;99.512;2023-06-26T06:13:20;6.15;;;3.50;;
36797;SDS011;22748;8.426;99.512;2023-06-26T06:16:03;6.40;;;4.93;;
36797;SDS011;22748;8.426;99.512;2023-06-26T06:18:33;7.65;;;5.25;;
36797;SDS011;22748;8.426;99.512;2023-06-26T06:21:04;6.68;;;4.55;;
36797;SDS011;22748;8.426;99.512;2023-06-26T06:23:36;6.28;;;3.97;;
36797;SDS011;22748;8.426;99.512;2023-06-26T06:26:07;17.80;;;13.32;;
36797;SDS011;22748;8.426;99.512;2023-06-26T06:28:39;11.23;;;8.65;;
36797;SDS011;22748;8.426;99.512;2023-06-26T06:31:09;8.98;;;5.78;;
36797;SDS011;22748;8.426;99.512;2023-06-26T06:33:41;9.27;;;5.97;;
36797;SDS011;22748;8.426;99.512;2023-06-26T06:36:13;7.05;;;5.43;;
36797;SDS011;22748;8.426;99.512;2023-06-26T06:38:45;8.55;;;4.57;;
36797;SDS011;22748;8.426;99.512;2023-06-26T06:41:16;8.07;;;5.20;;
36797;SDS011;22748;8.426;99.512;2023-06-26T06:43:46;9.73;;;5.93;;
36797;SDS011;22748;8.426;99.512;2023-06-26T06:46:18;6.95;;;5.07;;
36797;SDS011;22748;8.426;99.512;2023-06-26T06:48:49;9.90;;;6.15;;
36797;SDS011;22748;8.426;99.512;2023-06-26T06:51:21;6.93;;;5.53;;
36797;SDS011;22748;8.426;99.512;2023-06-26T06:53:54;8.73;;;4.90;;
36797;SDS011;22748;8.426;99.512;2023-06-26T06:56:27;7.57;;;4.90;;
36797;SDS011;22748;8.426;99.512;2023-06-26T06:58:57;6.07;;;4.00;;
36797;SDS011;22748;8.426;99.512;2023-06-26T07:01:29;5.18;;;4.05;;
36797;SDS011;22748;8.426;99.512;2023-06-26T07:06:30;5.47;;;4.45;;
36797;SDS011;22748;8.426;99.512;2023-06-26T07:09:03;8.50;;;5.15;;
36797;SDS011;22748;8.426;99.512;2023-06-26T07:11:35;8.00;;;5.03;;
36797;SDS011;22748;8.426;99.512;2023-06-26T07:14:06;10.13;;;4.85;;
36797;SDS011;22748;8.426;99.512;2023-06-26T07:19:11;8.05;;;4.63;;
36797;SDS011;22748;8.426;99.512;2023-06-26T07:21:42;8.30;;;5.10;;
36797;SDS011;22748;8.426;99.512;2023-06-26T07:26:46;11.73;;;4.95;;
36797;SDS011;22748;8.426;99.512;2023-06-26T07:29:16;6.35;;;4.03;;
36797;SDS011;22748;8.426;99.512;2023-06-26T07:31:45;6.45;;;3.75;;
36797;SDS011;22748;8.426;99.512;2023-06-26T07:34:16;4.60;;;3.15;;
36797;SDS011;22748;8.426;99.512;2023-06-26T07:39:18;10.02;;;5.57;;
36797;SDS011;22748;8.426;99.512;2023-06-26T07:41:48;10.15;;;4.38;;
36797;SDS011;22748;8.426;99.512;2023-06-26T07:44:18;8.23;;;3.90;;
36797;SDS011;22748;8.426;99.512;2023-06-26T07:46:48;7.23;;;3.40;;
36797;SDS011;22748;8.426;99.512;2023-06-26T07:49:18;5.03;;;3.63;;
36797;SDS011;22748;8.426;99.512;2023-06-26T07:52:00;6.63;;;3.38;;
36797;SDS011;22748;8.426;99.512;2023-06-26T07:54:36;6.65;;;3.53;;
36797;SDS011;22748;8.426;99.512;2023-06-26T07:57:10;9.52;;;3.65;;
36797;SDS011;22748;8.426;99.512;2023-06-26T07:59:46;8.55;;;3.83;;
36797;SDS011;22748;8.426;99.512;2023-06-26T08:02:19;6.68;;;3.53;;
36797;SDS011;22748;8.426;99.512;2023-06-26T08:04:50;7.70;;;3.58;;
36797;SDS011;22748;8.426;99.512;2023-06-26T08:07:20;6.25;;;3.45;;
36797;SDS011;22748;8.426;99.512;2023-06-26T08:09:53;11.60;;;4.23;;
36797;SDS011;22748;8.426;99.512;2023-06-26T08:12:25;4.65;;;3.67;;
36797;SDS011;22748;8.426;99.512;2023-06-26T08:14:55;7.53;;;3.58;;
36797;SDS011;22748;8.426;99.512;2023-06-26T08:17:37;7.50;;;3.35;;
36797;SDS011;22748;8.426;99.512;2023-06-26T08:20:11;4.53;;;2.67;;
36797;SDS011;22748;8.426;99.512;2023-06-26T08:22:41;7.10;;;2.65;;
36797;SDS011;22748;8.426;99.512;2023-06-26T08:25:15;5.60;;;3.92;;
36797;SDS011;22748;8.426;99.512;2023-06-26T08:27:48;5.95;;;3.05;;
36797;SDS011;22748;8.426;99.512;2023-06-26T08:30:21;6.25;;;3.10;;
36797;SDS011;22748;8.426;99.512;2023-06-26T08:32:54;6.22;;;2.53;;
36797;SDS011;22748;8.426;99.512;2023-06-26T08:35:25;4.70;;;2.80;;
36797;SDS011;22748;8.426;99.512;2023-06-26T08:37:57;7.03;;;3.80;;
36797;SDS011;22748;8.426;99.512;2023-06-26T08:40:31;4.22;;;2.53;;
36797;SDS011;22748;8.426;99.512;2023-06-26T08:43:03;6.47;;;3.50;;
36797;SDS011;22748;8.426;99.512;2023-06-26T08:45:34;8.05;;;6.45;;
36797;SDS011;22748;8.426;99.512;2023-06-26T08:48:06;20.60;;;15.93;;
36797;SDS011;22748;8.426;99.512;2023-06-26T08:50:39;10.27;;;6.50;;
36797;SDS011;22748;8.426;99.512;2023-06-26T08:53:13;8.35;;;5.07;;
36797;SDS011;22748;8.426;99.512;2023-06-26T08:56:04;6.53;;;3.67;;
36797;SDS011;22748;8.426;99.512;2023-06-26T08:58:36;7.10;;;3.33;;
36797;SDS011;22748;8.426;99.512;2023-06-26T09:01:07;7.63;;;2.95;;
36797;SDS011;22748;8.426;99.512;2023-06-26T09:03:37;4.40;;;2.30;;
36797;SDS011;22748;8.426;99.512;2023-06-26T09:06:13;6.85;;;2.85;;
36797;SDS011;22748;8.426;99.512;2023-06-26T09:08:48;4.88;;;2.60;;
36797;SDS011;22748;8.426;99.512;2023-06-26T09:11:24;4.25;;;2.47;;
36797;SDS011;22748;8.426;99.512;2023-06-26T09:13:55;9.52;;;3.67;;
36797;SDS011;22748;8.426;99.512;2023-06-26T09:18:56;7.82;;;4.20;;
36797;SDS011;22748;8.426;99.512;2023-06-26T09:21:31;9.25;;;6.63;;
36797;SDS011;22748;8.426;99.512;2023-06-26T09:24:24;19.17;;;15.43;;
36797;SDS011;22748;8.426;99.512;2023-06-26T09:27:03;11.48;;;9.38;;
36797;SDS011;22748;8.426;99.512;2023-06-26T09:29:40;6.80;;;6.10;;
36797;SDS011;22748;8.426;99.512;2023-06-26T09:32:11;13.73;;;4.67;;
36797;SDS011;22748;8.426;99.512;2023-06-26T09:34:45;8.43;;;6.40;;
36797;SDS011;22748;8.426;99.512;2023-06-26T09:37:18;5.85;;;5.03;;
36797;SDS011;22748;8.426;99.512;2023-06-26T09:39:49;8.45;;;4.20;;
36797;SDS011;22748;8.426;99.512;2023-06-26T09:45:02;13.35;;;4.97;;
36797;SDS011;22748;8.426;99.512;2023-06-26T09:47:33;13.00;;;5.68;;
36797;SDS011;22748;8.426;99.512;2023-06-26T09:52:35;9.98;;;5.88;;
36797;SDS011;22748;8.426;99.512;2023-06-26T09:55:09;8.52;;;6.80;;
36797;SDS011;22748;8.426;99.512;2023-06-26T09:57:46;7.60;;;5.60;;
36797;SDS011;22748;8.426;99.512;2023-06-26T10:00:17;9.32;;;5.60;;
36797;SDS011;22748;8.426;99.512;2023-06-26T10:02:53;6.38;;;4.78;;
36797;SDS011;22748;8.426;99.512;2023-06-26T10:05:24;6.10;;;4.38;;
36797;SDS011;22748;8.426;99.512;2023-06-26T10:08:00;11.02;;;4.82;;
36797;SDS011;22748;8.426;99.512;2023-06-26T10:36:44;9.32;;;5.63;;
36797;SDS011;22748;8.426;99.512;2023-06-26T10:39:17;12.77;;;5.45;;
36797;SDS011;22748;8.426;99.512;2023-06-26T10:41:48;8.65;;;6.05;;
36797;SDS011;22748;8.426;99.512;2023-06-26T10:44:23;7.35;;;5.35;;
36797;SDS011;22748;8.426;99.512;2023-06-26T10:46:55;8.43;;;5.40;;
36797;SDS011;22748;8.426;99.512;2023-06-26T10:49:28;10.00;;;6.00;;
36797;SDS011;22748;8.426;99.512;2023-06-26T10:52:02;13.63;;;7.75;;
36797;SDS011;22748;8.426;99.512;2023-06-26T10:54:34;15.57;;;7.55;;
36797;SDS011;22748;8.426;99.512;2023-06-26T10:57:08;9.55;;;6.60;;
36797;SDS011;22748;8.426;99.512;2023-06-26T10:59:39;13.98;;;6.10;;
36797;SDS011;22748;8.426;99.512;2023-06-26T11:02:11;9.02;;;4.45;;
36797;SDS011;22748;8.426;99.512;2023-06-26T11:04:43;8.52;;;4.53;;
36797;SDS011;22748;8.426;99.512;2023-06-26T11:07:21;11.38;;;5.20;;
36797;SDS011;22748;8.426;99.512;2023-06-26T11:10:08;9.02;;;5.10;;
36797;SDS011;22748;8.426;99.512;2023-06-26T11:12:39;12.45;;;4.80;;
36797;SDS011;22748;8.426;99.512;2023-06-26T11:15:14;10.88;;;4.88;;
36797;SDS011;22748;8.426;99.512;2023-06-26T11:17:46;10.05;;;5.45;;
36797;SDS011;22748;8.426;99.512;2023-06-26T11:20:19;11.85;;;6.25;;
36797;SDS011;22748;8.426;99.512;2023-06-26T11:22:52;7.57;;;6.03;;
36797;SDS011;22748;8.426;99.512;2023-06-26T11:25:26;13.70;;;7.35;;
36797;SDS011;22748;8.426;99.512;2023-06-26T11:27:57;10.25;;;5.97;;
36797;SDS011;22748;8.426;99.512;2023-06-26T11:30:28;14.57;;;6.35;;
36797;SDS011;22748;8.426;99.512;2023-06-26T11:33:14;14.15;;;7.53;;
36797;SDS011;22748;8.426;99.512;2023-06-26T11:35:45;10.88;;;7.18;;
36797;SDS011;22748;8.426;99.512;2023-06-26T11:38:18;8.50;;;5.57;;
36797;SDS011;22748;8.426;99.512;2023-06-26T11:40:49;7.43;;;5.43;;
36797;SDS011;22748;8.426;99.512;2023-06-26T11:43:22;10.93;;;5.47;;
36797;SDS011;22748;8.426;99.512;2023-06-26T11:45:53;7.07;;;4.72;;
36797;SDS011;22748;8.426;99.512;2023-06-26T11:48:25;10.00;;;6.15;;
36797;SDS011;22748;8.426;99.512;2023-06-26T11:50:57;17.17;;;11.07;;
36797;SDS011;22748;8.426;99.512;2023-06-26T11:53:30;14.57;;;9.32;;
36797;SDS011;22748;8.426;99.512;2023-06-26T11:56:06;9.38;;;7.40;;
36797;SDS011;22748;8.426;99.512;2023-06-26T11:58:37;50.83;;;9.48;;
36797;SDS011;22748;8.426;99.512;2023-06-26T12:01:29;22.88;;;5.45;;
36797;SDS011;22748;8.426;99.512;2023-06-26T12:04:02;15.40;;;5.25;;
36797;SDS011;22748;8.426;99.512;2023-06-26T12:06:35;10.75;;;5.03;;
36797;SDS011;22748;8.426;99.512;2023-06-26T12:09:09;7.53;;;4.55;;
36797;SDS011;22748;8.426;99.512;2023-06-26T12:11:42;8.98;;;4.78;;
36797;SDS011;22748;8.426;99.512;2023-06-26T12:14:14;7.05;;;3.88;;
36797;SDS011;22748;8.426;99.512;2023-06-26T12:16:47;9.00;;;4.30;;
36797;SDS011;22748;8.426;99.512;2023-06-26T12:19:23;6.75;;;3.80;;
36797;SDS011;22748;8.426;99.512;2023-06-26T12:21:55;10.80;;;3.97;;
36797;SDS011;22748;8.426;99.512;2023-06-26T12:24:27;7.80;;;3.65;;
36797;SDS011;22748;8.426;99.512;2023-06-26T12:26:58;11.90;;;4.38;;
36797;SDS011;22748;8.426;99.512;2023-06-26T12:29:32;8.55;;;3.80;;
36797;SDS011;22748;8.426;99.512;2023-06-26T12:32:07;9.10;;;5.15;;
36797;SDS011;22748;8.426;99.512;2023-06-26T12:34:38;9.80;;;5.07;;
36797;SDS011;22748;8.426;99.512;2023-06-26T12:37:12;12.23;;;6.93;;
36797;SDS011;22748;8.426;99.512;2023-06-26T12:39:49;18.15;;;10.82;;
36797;SDS011;22748;8.426;99.512;2023-06-26T12:42:20;19.92;;;13.52;;
36797;SDS011;22748;8.426;99.512;2023-06-26T12:44:53;18.95;;;11.35;;
36797;SDS011;22748;8.426;99.512;2023-06-26T12:47:24;10.85;;;9.13;;
36797;SDS011;22748;8.426;99.512;2023-06-26T12:49:57;13.00;;;8.32;;
36797;SDS011;22748;8.426;99.512;2023-06-26T12:52:28;10.40;;;8.10;;
36797;SDS011;22748;8.426;99.512;2023-06-26T12:55:04;13.25;;;8.13;;
36797;SDS011;22748;8.426;99.512;2023-06-26T12:57:41;14.15;;;9.35;;
36797;SDS011;22748;8.426;99.512;2023-06-26T13:00:13;16.42;;;10.02;;
36797;SDS011;22748;8.426;99.512;2023-06-26T13:02:44;17.92;;;10.57;;
36797;SDS011;22748;8.426;99.512;2023-06-26T13:05:16;16.75;;;10.55;;
36797;SDS011;22748;8.426;99.512;2023-06-26T13:07:47;12.13;;;8.98;;
36797;SDS011;22748;8.426;99.512;2023-06-26T13:10:20;13.88;;;6.97;;
36797;SDS011;22748;8.426;99.512;2023-06-26T13:12:52;12.55;;;7.20;;
36797;SDS011;22748;8.426;99.512;2023-06-26T13:15:24;10.18;;;7.30;;
36797;SDS011;22748;8.426;99.512;2023-06-26T13:17:54;11.88;;;8.25;;
36797;SDS011;22748;8.426;99.512;2023-06-26T13:20:27;10.07;;;5.97;;
36797;SDS011;22748;8.426;99.512;2023-06-26T13:23:00;10.10;;;7.10;;
36797;SDS011;22748;8.426;99.512;2023-06-26T13:25:38;9.90;;;6.38;;
36797;SDS011;22748;8.426;99.512;2023-06-26T13:28:08;10.27;;;6.68;;
36797;SDS011;22748;8.426;99.512;2023-06-26T13:30:42;10.73;;;6.63;;
36797;SDS011;22748;8.426;99.512;2023-06-26T13:33:14;10.68;;;6.90;;
36797;SDS011;22748;8.426;99.512;2023-06-26T13:35:45;10.45;;;6.50;;
36797;SDS011;22748;8.426;99.512;2023-06-26T13:38:15;11.27;;;6.90;;
36797;SDS011;22748;8.426;99.512;2023-06-26T13:40:49;9.73;;;6.53;;
36797;SDS011;22748;8.426;99.512;2023-06-26T13:43:20;9.32;;;6.57;;
36797;SDS011;22748;8.426;99.512;2023-06-26T13:45:51;12.18;;;5.85;;
36797;SDS011;22748;8.426;99.512;2023-06-26T13:48:22;10.02;;;6.25;;
36797;SDS011;22748;8.426;99.512;2023-06-26T13:50:54;11.38;;;6.05;;
36797;SDS011;22748;8.426;99.512;2023-06-26T13:53:27;8.50;;;6.27;;
36797;SDS011;22748;8.426;99.512;2023-06-26T13:56:00;8.40;;;6.30;;
36797;SDS011;22748;8.426;99.512;2023-06-26T13:58:34;9.57;;;5.95;;
36797;SDS011;22748;8.426;99.512;2023-06-26T14:01:06;8.75;;;5.85;;
36797;SDS011;22748;8.426;99.512;2023-06-26T14:03:37;6.85;;;5.22;;
36797;SDS011;22748;8.426;99.512;2023-06-26T14:08:36;9.82;;;5.50;;
36797;SDS011;22748;8.426;99.512;2023-06-26T14:11:08;10.20;;;5.72;;
36797;SDS011;22748;8.426;99.512;2023-06-26T14:13:39;7.50;;;5.00;;
36797;SDS011;22748;8.426;99.512;2023-06-26T14:16:09;7.57;;;5.20;;
36797;SDS011;22748;8.426;99.512;2023-06-26T14:18:40;11.60;;;5.97;;
36797;SDS011;22748;8.426;99.512;2023-06-26T14:21:11;7.35;;;5.70;;
36797;SDS011;22748;8.426;99.512;2023-06-26T14:23:41;12.85;;;7.13;;
36797;SDS011;22748;8.426;99.512;2023-06-26T14:26:14;12.27;;;7.25;;
36797;SDS011;22748;8.426;99.512;2023-06-26T14:28:44;10.48;;;7.45;;
36797;SDS011;22748;8.426;99.512;2023-06-26T14:31:15;14.32;;;8.75;;
36797;SDS011;22748;8.426;99.512;2023-06-26T14:33:46;16.00;;;9.77;;
36797;SDS011;22748;8.426;99.512;2023-06-26T14:36:16;11.82;;;8.63;;
36797;SDS011;22748;8.426;99.512;2023-06-26T14:38:46;10.97;;;8.23;;
36797;SDS011;22748;8.426;99.512;2023-06-26T14:41:20;10.35;;;7.75;;
36797;SDS011;22748;8.426;99.512;2023-06-26T14:43:51;13.82;;;7.75;;
36797;SDS011;22748;8.426;99.512;2023-06-26T14:46:22;10.57;;;7.80;;
36797;SDS011;22748;8.426;99.512;2023-06-26T14:48:54;12.75;;;7.53;;
36797;SDS011;22748;8.426;99.512;2023-06-26T14:51:25;11.40;;;8.13;;
36797;SDS011;22748;8.426;99.512;2023-06-26T14:53:55;13.48;;;7.90;;
36797;SDS011;22748;8.426;99.512;2023-06-26T14:56:30;12.02;;;7.70;;
36797;SDS011;22748;8.426;99.512;2023-06-26T14:59:00;10.38;;;7.57;;
36797;SDS011;22748;8.426;99.512;2023-06-26T15:01:30;10.75;;;7.25;;
36797;SDS011;22748;8.426;99.512;2023-06-26T15:04:01;10.48;;;6.78;;
36797;SDS011;22748;8.426;99.512;2023-06-26T15:06:32;10.38;;;6.85;;
36797;SDS011;22748;8.426;99.512;2023-06-26T15:09:05;11.63;;;7.40;;
36797;SDS011;22748;8.426;99.512;2023-06-26T15:11:38;9.25;;;6.65;;
36797;SDS011;22748;8.426;99.512;2023-06-26T15:14:08;7.75;;;6.30;;
36797;SDS011;22748;8.426;99.512;2023-06-26T15:16:40;9.52;;;7.00;;
36797;SDS011;22748;8.426;99.512;2023-06-26T15:19:11;10.57;;;6.97;;
36797;SDS011;22748;8.426;99.512;2023-06-26T15:21:42;11.00;;;6.80;;
36797;SDS011;22748;8.426;99.512;2023-06-26T15:24:15;10.35;;;6.80;;
36797;SDS011;22748;8.426;99.512;2023-06-26T15:26:48;13.02;;;7.00;;
36797;SDS011;22748;8.426;99.512;2023-06-26T15:29:18;11.00;;;6.95;;
36797;SDS011;22748;8.426;99.512;2023-06-26T15:31:49;10.60;;;6.45;;
36797;SDS011;22748;8.426;99.512;2023-06-26T15:34:21;10.73;;;6.15;;
36797;SDS011;22748;8.426;99.512;2023-06-26T15:36:53;11.57;;;6.18;;
36797;SDS011;22748;8.426;99.512;2023-06-26T15:39:24;10.35;;;6.50;;
36797;SDS011;22748;8.426;99.512;2023-06-26T15:41:57;10.43;;;6.55;;
36797;SDS011;22748;8.426;99.512;2023-06-26T15:44:29;10.50;;;6.50;;
36797;SDS011;22748;8.426;99.512;2023-06-26T15:47:01;10.15;;;6.63;;
36797;SDS011;22748;8.426;99.512;2023-06-26T15:49:33;8.60;;;6.80;;
36797;SDS011;22748;8.426;99.512;2023-06-26T15:52:04;8.35;;;6.63;;
36797;SDS011;22748;8.426;99.512;2023-06-26T15:54:35;11.40;;;7.20;;
36797;SDS011;22748;8.426;99.512;2023-06-26T15:57:09;9.57;;;7.88;;
36797;SDS011;22748;8.426;99.512;2023-06-26T15:59:39;7.95;;;7.15;;
36797;SDS011;22748;8.426;99.512;2023-06-26T16:02:10;10.43;;;7.33;;
36797;SDS011;22748;8.426;99.512;2023-06-26T16:04:41;11.52;;;7.65;;
36797;SDS011;22748;8.426;99.512;2023-06-26T16:07:12;12.68;;;10.07;;
36797;SDS011;22748;8.426;99.512;2023-06-26T16:12:16;17.05;;;11.30;;
36797;SDS011;22748;8.426;99.512;2023-06-26T16:14:47;13.35;;;10.95;;
36797;SDS011;22748;8.426;99.512;2023-06-26T16:17:19;14.05;;;10.50;;
36797;SDS011;22748;8.426;99.512;2023-06-26T16:19:50;13.07;;;10.25;;
36797;SDS011;22748;8.426;99.512;2023-06-26T16:22:22;13.75;;;9.95;;
36797;SDS011;22748;8.426;99.512;2023-06-26T16:24:53;11.90;;;9.63;;
36797;SDS011;22748;8.426;99.512;2023-06-26T16:27:26;11.25;;;8.48;;
36797;SDS011;22748;8.426;99.512;2023-06-26T16:29:58;10.98;;;8.00;;
36797;SDS011;22748;8.426;99.512;2023-06-26T16:32:29;10.15;;;7.82;;
36797;SDS011;22748;8.426;99.512;2023-06-26T16:37:31;9.32;;;6.97;;
36797;SDS011;22748;8.426;99.512;2023-06-26T16:40:02;8.65;;;6.35;;
36797;SDS011;22748;8.426;99.512;2023-06-26T16:42:35;8.98;;;6.85;;
36797;SDS011;22748;8.426;99.512;2023-06-26T16:45:06;8.93;;;6.78;;
36797;SDS011;22748;8.426;99.512;2023-06-26T16:47:37;7.72;;;6.47;;